sensor_id;sensor_type;location;lat;lon;timestamp;pressure;altitude;pressure_sealevel;temperature;humidity
16694;BME280;39538;52.196;9.892;2022-12-29T00:02:04;99319.94;;;9.28;85.17
16694;BME280;39538;52.196;9.892;2022-12-29T00:04:30;99315.34;;;9.30;84.93
16694;BME280;39538;52.196;9.892;2022-12-29T00:06:58;99308.63;;;9.26;85.38
16694;BME280;39538;52.196;9.892;2022-12-29T00:09:25;99311.72;;;9.31;85.09
16694;BME280;39538;52.196;9.892;2022-12-29T00:11:52;99308.47;;;9.27;85.27
16694;BME280;39538;52.196;9.892;2022-12-29T00:14:19;99298.91;;;9.36;85.19
16694;BME280;39538;52.196;9.892;2022-12-29T00:17:03;99309.25;;;9.39;84.80
16694;BME280;39538;52.196;9.892;2022-12-29T00:19:29;99317.06;;;9.41;85.16
16694;BME280;39538;52.196;9.892;2022-12-29T00:22:15;99318.78;;;9.42;84.71
16694;BME280;39538;52.196;9.892;2022-12-29T00:24:59;99315.97;;;9.43;84.58
16694;BME280;39538;52.196;9.892;2022-12-29T00:27:43;99308.72;;;9.45;84.56
16694;BME280;39538;52.196;9.892;2022-12-29T00:30:28;99303.31;;;9.47;84.68
16694;BME280;39538;52.196;9.892;2022-12-29T00:33:13;99298.47;;;9.52;84.32
16694;BME280;39538;52.196;9.892;2022-12-29T00:36:01;99311.09;;;9.48;84.54
16694;BME280;39538;52.196;9.892;2022-12-29T00:38:31;99304.16;;;9.47;84.70
16694;BME280;39538;52.196;9.892;2022-12-29T00:41:16;99304.28;;;9.46;85.31
16694;BME280;39538;52.196;9.892;2022-12-29T00:44:00;99295.59;;;9.44;85.52
16694;BME280;39538;52.196;9.892;2022-12-29T00:46:36;99302.09;;;9.51;86.17
16694;BME280;39538;52.196;9.892;2022-12-29T00:49:03;99308.63;;;9.47;87.01
16694;BME280;39538;52.196;9.892;2022-12-29T00:51:48;99300.66;;;9.47;87.32
16694;BME280;39538;52.196;9.892;2022-12-29T00:54:16;99306.09;;;9.45;87.51
16694;BME280;39538;52.196;9.892;2022-12-29T00:56:43;99293.44;;;9.49;87.48
16694;BME280;39538;52.196;9.892;2022-12-29T00:59:10;99287.16;;;9.50;87.04
16694;BME280;39538;52.196;9.892;2022-12-29T01:01:37;99297.06;;;9.58;87.18
16694;BME280;39538;52.196;9.892;2022-12-29T01:04:04;99286.47;;;9.58;86.97
16694;BME280;39538;52.196;9.892;2022-12-29T01:06:31;99291.22;;;9.54;87.10
16694;BME280;39538;52.196;9.892;2022-12-29T01:08:58;99278.41;;;9.59;87.27
16694;BME280;39538;52.196;9.892;2022-12-29T01:11:42;99282.56;;;9.52;87.42
16694;BME280;39538;52.196;9.892;2022-12-29T01:14:11;99282.25;;;9.45;88.03
16694;BME280;39538;52.196;9.892;2022-12-29T01:16:37;99269.38;;;9.41;88.70
16694;BME280;39538;52.196;9.892;2022-12-29T01:19:04;99278.44;;;9.38;89.03
16694;BME280;39538;52.196;9.892;2022-12-29T01:21:34;99270.78;;;9.35;89.69
16694;BME280;39538;52.196;9.892;2022-12-29T01:24:01;99264.22;;;9.39;89.88
16694;BME280;39538;52.196;9.892;2022-12-29T01:26:28;99269.38;;;9.41;89.69
16694;BME280;39538;52.196;9.892;2022-12-29T01:28:56;99261.72;;;9.38;90.49
16694;BME280;39538;52.196;9.892;2022-12-29T01:31:23;99269.94;;;9.35;90.35
16694;BME280;39538;52.196;9.892;2022-12-29T01:33:49;99255.44;;;9.39;90.95
16694;BME280;39538;52.196;9.892;2022-12-29T01:36:17;99257.13;;;9.40;91.17
16694;BME280;39538;52.196;9.892;2022-12-29T01:38:44;99249.31;;;9.38;91.13
16694;BME280;39538;52.196;9.892;2022-12-29T01:41:12;99242.06;;;9.40;91.28
16694;BME280;39538;52.196;9.892;2022-12-29T01:43:41;99232.59;;;9.38;91.43
16694;BME280;39538;52.196;9.892;2022-12-29T01:46:15;99230.66;;;9.40;91.54
16694;BME280;39538;52.196;9.892;2022-12-29T01:48:55;99226.47;;;9.37;91.60
16694;BME280;39538;52.196;9.892;2022-12-29T01:51:25;99233.13;;;9.41;91.59
16694;BME280;39538;52.196;9.892;2022-12-29T01:53:54;99222.69;;;9.40;91.75
16694;BME280;39538;52.196;9.892;2022-12-29T01:56:26;99221.00;;;9.39;92.07
16694;BME280;39538;52.196;9.892;2022-12-29T01:58:56;99212.94;;;9.40;91.99
16694;BME280;39538;52.196;9.892;2022-12-29T02:01:28;99212.50;;;9.35;92.07
16694;BME280;39538;52.196;9.892;2022-12-29T02:03:55;99203.84;;;9.33;92.60
16694;BME280;39538;52.196;9.892;2022-12-29T02:06:24;99216.69;;;9.38;92.88
16694;BME280;39538;52.196;9.892;2022-12-29T02:08:53;99210.91;;;9.54;91.98
16694;BME280;39538;52.196;9.892;2022-12-29T02:11:23;99206.19;;;9.67;90.91
16694;BME280;39538;52.196;9.892;2022-12-29T02:13:50;99196.47;;;9.67;90.61
16694;BME280;39538;52.196;9.892;2022-12-29T02:16:29;99203.28;;;9.70;90.21
16694;BME280;39538;52.196;9.892;2022-12-29T02:19:09;99192.13;;;9.66;89.92
16694;BME280;39538;52.196;9.892;2022-12-29T02:21:59;99199.22;;;9.66;90.25
16694;BME280;39538;52.196;9.892;2022-12-29T02:24:46;99199.78;;;9.69;89.83
16694;BME280;39538;52.196;9.892;2022-12-29T02:30:40;99204.03;;;9.82;89.23
16694;BME280;39538;52.196;9.892;2022-12-29T02:33:18;99180.31;;;9.90;88.86
16694;BME280;39538;52.196;9.892;2022-12-29T02:35:53;99187.59;;;9.98;88.07
16694;BME280;39538;52.196;9.892;2022-12-29T02:38:29;99186.19;;;10.03;87.25
16694;BME280;39538;52.196;9.892;2022-12-29T02:41:05;99200.44;;;10.02;87.63
16694;BME280;39538;52.196;9.892;2022-12-29T02:43:38;99183.97;;;10.08;87.00
16694;BME280;39538;52.196;9.892;2022-12-29T02:46:12;99201.69;;;10.08;86.96
16694;BME280;39538;52.196;9.892;2022-12-29T02:48:43;99208.53;;;10.10;86.90
16694;BME280;39538;52.196;9.892;2022-12-29T02:51:15;99205.88;;;10.10;86.85
16694;BME280;39538;52.196;9.892;2022-12-29T02:53:45;99187.31;;;10.10;86.58
16694;BME280;39538;52.196;9.892;2022-12-29T02:56:30;99199.88;;;10.08;86.45
16694;BME280;39538;52.196;9.892;2022-12-29T02:58:56;99195.81;;;10.04;86.68
16694;BME280;39538;52.196;9.892;2022-12-29T03:01:29;99190.66;;;10.03;86.84
16694;BME280;39538;52.196;9.892;2022-12-29T03:04:18;99196.81;;;10.03;87.08
16694;BME280;39538;52.196;9.892;2022-12-29T03:06:54;99192.63;;;10.01;86.90
16694;BME280;39538;52.196;9.892;2022-12-29T03:09:31;99190.94;;;10.00;86.82
16694;BME280;39538;52.196;9.892;2022-12-29T03:12:07;99189.41;;;10.07;86.88
16694;BME280;39538;52.196;9.892;2022-12-29T03:14:47;99186.06;;;10.05;87.22
16694;BME280;39538;52.196;9.892;2022-12-29T03:17:42;99188.97;;;10.02;88.04
16694;BME280;39538;52.196;9.892;2022-12-29T03:20:15;99182.31;;;9.98;88.82
16694;BME280;39538;52.196;9.892;2022-12-29T03:22:47;99172.78;;;9.95;89.55
16694;BME280;39538;52.196;9.892;2022-12-29T03:25:20;99183.38;;;9.95;90.10
16694;BME280;39538;52.196;9.892;2022-12-29T03:27:51;99180.06;;;9.93;90.32
16694;BME280;39538;52.196;9.892;2022-12-29T03:30:19;99174.31;;;9.88;90.88
16694;BME280;39538;52.196;9.892;2022-12-29T03:32:50;99168.16;;;9.87;91.07
16694;BME280;39538;52.196;9.892;2022-12-29T03:35:20;99157.03;;;9.84;91.18
16694;BME280;39538;52.196;9.892;2022-12-29T03:37:52;99162.44;;;9.82;91.66
16694;BME280;39538;52.196;9.892;2022-12-29T03:40:22;99142.63;;;9.77;92.72
16694;BME280;39538;52.196;9.892;2022-12-29T03:42:50;99148.06;;;9.75;92.54
16694;BME280;39538;52.196;9.892;2022-12-29T03:45:17;99145.25;;;9.67;93.07
16694;BME280;39538;52.196;9.892;2022-12-29T03:47:43;99144.84;;;9.71;93.32
16694;BME280;39538;52.196;9.892;2022-12-29T03:50:12;99146.25;;;9.76;93.21
16694;BME280;39538;52.196;9.892;2022-12-29T03:52:39;99139.31;;;9.84;93.13
16694;BME280;39538;52.196;9.892;2022-12-29T03:55:09;99142.47;;;9.78;93.16
16694;BME280;39538;52.196;9.892;2022-12-29T03:57:39;99140.41;;;9.72;93.35
16694;BME280;39538;52.196;9.892;2022-12-29T04:00:15;99140.94;;;9.76;93.93
16694;BME280;39538;52.196;9.892;2022-12-29T04:02:42;99128.13;;;9.81;93.31
16694;BME280;39538;52.196;9.892;2022-12-29T04:05:16;99138.72;;;9.81;92.88
16694;BME280;39538;52.196;9.892;2022-12-29T04:07:43;99152.97;;;9.80;92.66
16694;BME280;39538;52.196;9.892;2022-12-29T04:10:10;99144.19;;;9.89;92.29
16694;BME280;39538;52.196;9.892;2022-12-29T04:12:39;99146.44;;;9.94;91.66
16694;BME280;39538;52.196;9.892;2022-12-29T04:15:08;99156.03;;;9.95;91.36
16694;BME280;39538;52.196;9.892;2022-12-29T04:17:34;99144.78;;;10.02;90.93
16694;BME280;39538;52.196;9.892;2022-12-29T04:20:01;99139.88;;;10.07;90.64
16694;BME280;39538;52.196;9.892;2022-12-29T04:22:43;99143.91;;;10.11;89.97
16694;BME280;39538;52.196;9.892;2022-12-29T04:25:12;99136.25;;;10.18;89.38
16694;BME280;39538;52.196;9.892;2022-12-29T04:27:39;99135.81;;;10.13;89.15
16694;BME280;39538;52.196;9.892;2022-12-29T04:30:07;99146.59;;;10.21;88.32
16694;BME280;39538;52.196;9.892;2022-12-29T04:32:33;99145.19;;;10.27;87.55
16694;BME280;39538;52.196;9.892;2022-12-29T04:35:00;99138.78;;;10.29;87.04
16694;BME280;39538;52.196;9.892;2022-12-29T04:37:26;99133.47;;;10.29;86.54
16694;BME280;39538;52.196;9.892;2022-12-29T04:39:54;99148.97;;;10.44;85.97
16694;BME280;39538;52.196;9.892;2022-12-29T04:42:20;99143.25;;;10.48;85.31
16694;BME280;39538;52.196;9.892;2022-12-29T04:44:47;99145.75;;;10.50;85.08
16694;BME280;39538;52.196;9.892;2022-12-29T04:47:13;99147.28;;;10.52;84.07
16694;BME280;39538;52.196;9.892;2022-12-29T04:49:40;99140.44;;;10.60;83.36
16694;BME280;39538;52.196;9.892;2022-12-29T04:52:06;99148.66;;;10.66;83.23
16694;BME280;39538;52.196;9.892;2022-12-29T04:54:33;99126.44;;;10.67;82.85
16694;BME280;39538;52.196;9.892;2022-12-29T04:57:01;99125.63;;;10.67;82.09
16694;BME280;39538;52.196;9.892;2022-12-29T04:59:28;99125.75;;;10.75;81.45
16694;BME280;39538;52.196;9.892;2022-12-29T05:01:57;99124.03;;;10.84;80.97
16694;BME280;39538;52.196;9.892;2022-12-29T05:04:24;99130.19;;;10.84;80.35
16694;BME280;39538;52.196;9.892;2022-12-29T05:06:50;99117.72;;;10.94;80.04
16694;BME280;39538;52.196;9.892;2022-12-29T05:09:24;99115.06;;;10.94;79.64
16694;BME280;39538;52.196;9.892;2022-12-29T05:11:51;99104.88;;;10.90;79.71
16694;BME280;39538;52.196;9.892;2022-12-29T05:14:19;99112.41;;;10.94;79.61
16694;BME280;39538;52.196;9.892;2022-12-29T05:16:46;99107.09;;;10.94;79.28
16694;BME280;39538;52.196;9.892;2022-12-29T05:19:12;99109.63;;;10.96;79.14
16694;BME280;39538;52.196;9.892;2022-12-29T05:21:39;99109.56;;;11.06;78.46
16694;BME280;39538;52.196;9.892;2022-12-29T05:24:06;99108.75;;;11.05;78.32
16694;BME280;39538;52.196;9.892;2022-12-29T05:26:32;99107.22;;;11.03;78.32
16694;BME280;39538;52.196;9.892;2022-12-29T05:28:59;99107.66;;;10.98;78.76
16694;BME280;39538;52.196;9.892;2022-12-29T05:31:27;99104.84;;;11.00;79.09
16694;BME280;39538;52.196;9.892;2022-12-29T05:33:54;99103.19;;;10.99;79.24
16694;BME280;39538;52.196;9.892;2022-12-29T05:36:20;99097.31;;;10.95;79.91
16694;BME280;39538;52.196;9.892;2022-12-29T05:38:47;99094.41;;;10.88;80.32
16694;BME280;39538;52.196;9.892;2022-12-29T05:41:13;99095.00;;;10.82;81.12
16694;BME280;39538;52.196;9.892;2022-12-29T05:43:40;99097.09;;;10.79;81.63
16694;BME280;39538;52.196;9.892;2022-12-29T05:46:06;99107.88;;;10.77;82.18
16694;BME280;39538;52.196;9.892;2022-12-29T05:48:34;99099.63;;;10.70;83.21
16694;BME280;39538;52.196;9.892;2022-12-29T05:51:00;99093.78;;;10.67;84.14
16694;BME280;39538;52.196;9.892;2022-12-29T05:53:27;99101.06;;;10.55;85.61
16694;BME280;39538;52.196;9.892;2022-12-29T05:55:53;99091.28;;;10.55;85.70
16694;BME280;39538;52.196;9.892;2022-12-29T05:58:20;99103.44;;;10.48;86.87
16694;BME280;39538;52.196;9.892;2022-12-29T06:00:46;99093.25;;;10.44;88.33
16694;BME280;39538;52.196;9.892;2022-12-29T06:03:13;99098.03;;;10.30;89.78
16694;BME280;39538;52.196;9.892;2022-12-29T06:05:41;99098.00;;;10.21;91.61
16694;BME280;39538;52.196;9.892;2022-12-29T06:08:07;99088.09;;;10.13;92.27
16694;BME280;39538;52.196;9.892;2022-12-29T06:10:33;99090.88;;;10.11;92.56
16694;BME280;39538;52.196;9.892;2022-12-29T06:13:00;99086.84;;;10.07;92.81
16694;BME280;39538;52.196;9.892;2022-12-29T06:15:26;99091.88;;;10.10;92.98
16694;BME280;39538;52.196;9.892;2022-12-29T06:17:53;99079.16;;;10.04;92.99
16694;BME280;39538;52.196;9.892;2022-12-29T06:20:20;99077.91;;;10.08;92.92
16694;BME280;39538;52.196;9.892;2022-12-29T06:22:48;99069.94;;;10.08;92.58
16694;BME280;39538;52.196;9.892;2022-12-29T06:25:14;99072.06;;;10.15;92.34
16694;BME280;39538;52.196;9.892;2022-12-29T06:27:41;99067.28;;;10.28;91.16
16694;BME280;39538;52.196;9.892;2022-12-29T06:30:09;99063.41;;;10.32;90.57
16694;BME280;39538;52.196;9.892;2022-12-29T06:32:36;99080.69;;;10.46;89.63
16694;BME280;39538;52.196;9.892;2022-12-29T06:35:03;99065.34;;;10.49;88.67
16694;BME280;39538;52.196;9.892;2022-12-29T06:37:30;99078.44;;;10.61;87.78
16694;BME280;39538;52.196;9.892;2022-12-29T06:39:58;99067.81;;;10.61;87.57
16694;BME280;39538;52.196;9.892;2022-12-29T06:42:25;99059.16;;;10.59;87.47
16694;BME280;39538;52.196;9.892;2022-12-29T06:44:51;99053.00;;;10.68;86.39
16694;BME280;39538;52.196;9.892;2022-12-29T06:47:18;99068.88;;;10.78;85.88
16694;BME280;39538;52.196;9.892;2022-12-29T06:49:45;99063.97;;;10.83;85.40
16694;BME280;39538;52.196;9.892;2022-12-29T06:52:11;99063.41;;;10.79;85.81
16694;BME280;39538;52.196;9.892;2022-12-29T06:54:38;99051.03;;;10.70;86.92
16694;BME280;39538;52.196;9.892;2022-12-29T06:57:06;99041.59;;;10.48;88.59
16694;BME280;39538;52.196;9.892;2022-12-29T06:59:32;99060.47;;;10.45;88.17
16694;BME280;39538;52.196;9.892;2022-12-29T07:01:59;99063.38;;;10.42;88.04
16694;BME280;39538;52.196;9.892;2022-12-29T07:04:27;99068.41;;;10.45;87.70
16694;BME280;39538;52.196;9.892;2022-12-29T07:06:53;99058.16;;;10.60;85.64
16694;BME280;39538;52.196;9.892;2022-12-29T07:09:20;99068.78;;;10.60;85.42
16694;BME280;39538;52.196;9.892;2022-12-29T07:11:46;99089.56;;;10.74;84.20
16694;BME280;39538;52.196;9.892;2022-12-29T07:14:14;99068.53;;;10.90;82.24
16694;BME280;39538;52.196;9.892;2022-12-29T07:16:40;99047.84;;;10.94;82.09
16694;BME280;39538;52.196;9.892;2022-12-29T07:19:07;99048.38;;;11.07;80.90
16694;BME280;39538;52.196;9.892;2022-12-29T07:21:33;99033.78;;;11.11;79.61
16694;BME280;39538;52.196;9.892;2022-12-29T07:23:59;99065.13;;;11.08;79.94
16694;BME280;39538;52.196;9.892;2022-12-29T07:26:26;99046.38;;;11.09;78.98
16694;BME280;39538;52.196;9.892;2022-12-29T07:28:52;99058.72;;;11.01;79.33
16694;BME280;39538;52.196;9.892;2022-12-29T07:31:22;99071.97;;;11.10;78.19
16694;BME280;39538;52.196;9.892;2022-12-29T07:33:49;99082.44;;;11.12;78.10
16694;BME280;39538;52.196;9.892;2022-12-29T07:36:16;99094.59;;;11.14;78.22
16694;BME280;39538;52.196;9.892;2022-12-29T07:38:43;99098.38;;;11.12;78.63
16694;BME280;39538;52.196;9.892;2022-12-29T07:41:09;99103.72;;;11.02;79.95
16694;BME280;39538;52.196;9.892;2022-12-29T07:43:36;99118.03;;;10.91;81.59
16694;BME280;39538;52.196;9.892;2022-12-29T07:46:03;99136.75;;;10.90;81.88
16694;BME280;39538;52.196;9.892;2022-12-29T07:48:30;99139.69;;;10.87;81.83
16694;BME280;39538;52.196;9.892;2022-12-29T07:50:58;99141.22;;;10.89;81.93
16694;BME280;39538;52.196;9.892;2022-12-29T07:53:25;99132.97;;;10.92;81.56
16694;BME280;39538;52.196;9.892;2022-12-29T07:55:51;99147.06;;;10.93;81.71
16694;BME280;39538;52.196;9.892;2022-12-29T07:58:18;99155.47;;;10.88;81.77
16694;BME280;39538;52.196;9.892;2022-12-29T08:00:44;99134.53;;;10.75;81.98
16694;BME280;39538;52.196;9.892;2022-12-29T08:03:11;99149.09;;;10.62;83.95
16694;BME280;39538;52.196;9.892;2022-12-29T08:05:38;99149.13;;;10.42;87.58
16694;BME280;39538;52.196;9.892;2022-12-29T08:08:05;99143.50;;;10.16;91.22
16694;BME280;39538;52.196;9.892;2022-12-29T08:10:31;99165.69;;;9.96;94.25
16694;BME280;39538;52.196;9.892;2022-12-29T08:12:58;99159.66;;;9.84;96.34
16694;BME280;39538;52.196;9.892;2022-12-29T08:15:24;99166.50;;;9.77;98.20
16694;BME280;39538;52.196;9.892;2022-12-29T08:17:51;99167.72;;;9.73;99.38
16694;BME280;39538;52.196;9.892;2022-12-29T08:20:17;99157.66;;;9.66;99.71
16694;BME280;39538;52.196;9.892;2022-12-29T08:22:45;99162.25;;;9.64;100.00
16694;BME280;39538;52.196;9.892;2022-12-29T08:25:12;99166.84;;;9.62;100.00
16694;BME280;39538;52.196;9.892;2022-12-29T08:27:39;99157.66;;;9.66;100.00
16694;BME280;39538;52.196;9.892;2022-12-29T08:30:06;99156.16;;;9.74;99.54
16694;BME280;39538;52.196;9.892;2022-12-29T08:32:33;99161.19;;;9.77;98.16
16694;BME280;39538;52.196;9.892;2022-12-29T08:35:00;99155.19;;;9.84;95.98
16694;BME280;39538;52.196;9.892;2022-12-29T08:37:26;99160.50;;;9.94;94.50
16694;BME280;39538;52.196;9.892;2022-12-29T08:39:55;99154.25;;;10.15;91.09
16694;BME280;39538;52.196;9.892;2022-12-29T08:42:23;99150.63;;;10.25;90.15
16694;BME280;39538;52.196;9.892;2022-12-29T08:44:55;99157.22;;;10.31;89.33
16694;BME280;39538;52.196;9.892;2022-12-29T08:47:22;99181.94;;;10.31;89.80
16694;BME280;39538;52.196;9.892;2022-12-29T08:49:51;99207.44;;;10.23;90.82
16694;BME280;39538;52.196;9.892;2022-12-29T08:52:18;99212.19;;;10.09;93.47
16694;BME280;39538;52.196;9.892;2022-12-29T08:54:45;99232.78;;;9.96;96.10
16694;BME280;39538;52.196;9.892;2022-12-29T08:57:13;99233.81;;;9.74;98.85
16694;BME280;39538;52.196;9.892;2022-12-29T08:59:39;99241.84;;;9.53;100.00
16694;BME280;39538;52.196;9.892;2022-12-29T09:02:10;99220.66;;;9.22;100.00
16694;BME280;39538;52.196;9.892;2022-12-29T09:04:36;99213.31;;;9.05;100.00
16694;BME280;39538;52.196;9.892;2022-12-29T09:07:03;99208.09;;;8.94;100.00
16694;BME280;39538;52.196;9.892;2022-12-29T09:09:30;99219.91;;;8.90;100.00
16694;BME280;39538;52.196;9.892;2022-12-29T09:11:57;99216.69;;;8.86;100.00
16694;BME280;39538;52.196;9.892;2022-12-29T09:14:25;99223.53;;;8.89;100.00
16694;BME280;39538;52.196;9.892;2022-12-29T09:16:52;99227.34;;;8.96;100.00
16694;BME280;39538;52.196;9.892;2022-12-29T09:19:36;99228.28;;;8.95;100.00
16694;BME280;39538;52.196;9.892;2022-12-29T09:22:03;99221.22;;;8.95;100.00
16694;BME280;39538;52.196;9.892;2022-12-29T09:24:29;99224.91;;;8.93;100.00
16694;BME280;39538;52.196;9.892;2022-12-29T09:26:56;99232.41;;;8.88;100.00
16694;BME280;39538;52.196;9.892;2022-12-29T09:29:22;99226.41;;;8.85;100.00
16694;BME280;39538;52.196;9.892;2022-12-29T09:31:51;99226.16;;;8.89;100.00
16694;BME280;39538;52.196;9.892;2022-12-29T09:34:17;99227.28;;;8.86;100.00
16694;BME280;39538;52.196;9.892;2022-12-29T09:36:44;99226.03;;;8.90;100.00
16694;BME280;39538;52.196;9.892;2022-12-29T09:39:12;99220.16;;;8.86;100.00
16694;BME280;39538;52.196;9.892;2022-12-29T09:41:41;99229.38;;;8.92;100.00
16694;BME280;39538;52.196;9.892;2022-12-29T09:44:16;99226.63;;;8.94;100.00
16694;BME280;39538;52.196;9.892;2022-12-29T09:46:48;99231.59;;;8.87;100.00
16694;BME280;39538;52.196;9.892;2022-12-29T09:49:24;99227.56;;;8.93;100.00
16694;BME280;39538;52.196;9.892;2022-12-29T09:51:54;99230.69;;;8.98;100.00
16694;BME280;39538;52.196;9.892;2022-12-29T09:54:30;99221.50;;;9.02;100.00
16694;BME280;39538;52.196;9.892;2022-12-29T09:57:01;99237.16;;;9.05;100.00
16694;BME280;39538;52.196;9.892;2022-12-29T09:59:37;99235.50;;;9.14;100.00
16694;BME280;39538;52.196;9.892;2022-12-29T10:02:16;99224.41;;;9.20;100.00
16694;BME280;39538;52.196;9.892;2022-12-29T10:04:48;99230.34;;;9.33;100.00
16694;BME280;39538;52.196;9.892;2022-12-29T10:07:23;99229.13;;;9.47;100.00
16694;BME280;39538;52.196;9.892;2022-12-29T10:09:59;99227.69;;;9.74;100.00
16694;BME280;39538;52.196;9.892;2022-12-29T10:12:35;99217.31;;;10.01;100.00
16694;BME280;39538;52.196;9.892;2022-12-29T10:15:12;99221.44;;;10.34;99.60
16694;BME280;39538;52.196;9.892;2022-12-29T10:17:46;99221.13;;;11.06;95.74
16694;BME280;39538;52.196;9.892;2022-12-29T10:20:23;99224.41;;;11.27;91.00
16694;BME280;39538;52.196;9.892;2022-12-29T10:23:02;99224.72;;;11.24;88.85
16694;BME280;39538;52.196;9.892;2022-12-29T10:25:37;99225.03;;;11.02;87.03
16694;BME280;39538;52.196;9.892;2022-12-29T10:28:09;99233.13;;;11.10;86.63
16694;BME280;39538;52.196;9.892;2022-12-29T10:30:41;99224.97;;;11.31;86.63
16694;BME280;39538;52.196;9.892;2022-12-29T10:33:12;99220.34;;;11.70;82.04
16694;BME280;39538;52.196;9.892;2022-12-29T10:35:43;99221.25;;;11.79;80.83
16694;BME280;39538;52.196;9.892;2022-12-29T10:38:15;99231.88;;;11.89;75.85
16694;BME280;39538;52.196;9.892;2022-12-29T10:40:47;99234.53;;;11.89;75.97
16694;BME280;39538;52.196;9.892;2022-12-29T10:43:25;99223.53;;;12.47;73.35
16694;BME280;39538;52.196;9.892;2022-12-29T10:45:53;99198.94;;;12.71;71.09
16694;BME280;39538;52.196;9.892;2022-12-29T10:48:22;99199.28;;;12.94;71.89
16694;BME280;39538;52.196;9.892;2022-12-29T10:50:55;99209.59;;;13.41;70.79
16694;BME280;39538;52.196;9.892;2022-12-29T10:53:26;99208.69;;;13.06;70.34
16694;BME280;39538;52.196;9.892;2022-12-29T10:55:55;99198.13;;;12.35;70.53
16694;BME280;39538;52.196;9.892;2022-12-29T10:58:22;99214.81;;;12.09;73.47
16694;BME280;39538;52.196;9.892;2022-12-29T11:00:52;99203.81;;;12.04;74.33
16694;BME280;39538;52.196;9.892;2022-12-29T11:03:37;99223.69;;;12.00;74.45
16694;BME280;39538;52.196;9.892;2022-12-29T11:06:11;99235.31;;;11.71;74.36
16694;BME280;39538;52.196;9.892;2022-12-29T11:08:46;99231.91;;;11.42;74.56
16694;BME280;39538;52.196;9.892;2022-12-29T11:11:22;99235.91;;;11.18;74.65
16694;BME280;39538;52.196;9.892;2022-12-29T11:13:56;99249.06;;;11.10;75.04
16694;BME280;39538;52.196;9.892;2022-12-29T11:16:27;99245.03;;;11.06;73.83
16694;BME280;39538;52.196;9.892;2022-12-29T11:18:55;99239.31;;;11.01;73.36
16694;BME280;39538;52.196;9.892;2022-12-29T11:21:32;99242.63;;;11.12;73.86
16694;BME280;39538;52.196;9.892;2022-12-29T11:24:01;99239.25;;;11.20;74.07
16694;BME280;39538;52.196;9.892;2022-12-29T11:26:29;99251.84;;;11.18;71.01
16694;BME280;39538;52.196;9.892;2022-12-29T11:29:28;99250.16;;;11.17;70.32
16694;BME280;39538;52.196;9.892;2022-12-29T11:31:57;99248.06;;;11.11;71.20
16694;BME280;39538;52.196;9.892;2022-12-29T11:34:25;99251.28;;;11.05;69.56
16694;BME280;39538;52.196;9.892;2022-12-29T11:37:00;99262.50;;;10.99;70.40
16694;BME280;39538;52.196;9.892;2022-12-29T11:39:31;99264.59;;;10.85;71.44
16694;BME280;39538;52.196;9.892;2022-12-29T11:42:00;99271.59;;;10.76;71.60
16694;BME280;39538;52.196;9.892;2022-12-29T11:44:30;99279.41;;;10.78;71.26
16694;BME280;39538;52.196;9.892;2022-12-29T11:47:01;99265.03;;;10.81;71.94
16694;BME280;39538;52.196;9.892;2022-12-29T11:49:28;99276.47;;;10.81;73.57
16694;BME280;39538;52.196;9.892;2022-12-29T11:51:56;99273.81;;;10.81;73.58
16694;BME280;39538;52.196;9.892;2022-12-29T11:54:24;99272.88;;;10.72;72.55
16694;BME280;39538;52.196;9.892;2022-12-29T11:56:52;99273.69;;;10.92;72.14
16694;BME280;39538;52.196;9.892;2022-12-29T11:59:37;99271.97;;;12.51;68.04
16694;BME280;39538;52.196;9.892;2022-12-29T12:02:32;99275.19;;;13.34;62.61
16694;BME280;39538;52.196;9.892;2022-12-29T12:05:06;99282.28;;;13.78;59.80
16694;BME280;39538;52.196;9.892;2022-12-29T12:07:40;99269.09;;;13.24;60.52
16694;BME280;39538;52.196;9.892;2022-12-29T12:10:16;99282.53;;;12.60;61.42
16694;BME280;39538;52.196;9.892;2022-12-29T12:12:47;99285.81;;;12.09;64.12
16694;BME280;39538;52.196;9.892;2022-12-29T12:15:20;99276.31;;;11.69;65.44
16694;BME280;39538;52.196;9.892;2022-12-29T12:17:51;99277.09;;;11.42;66.43
16694;BME280;39538;52.196;9.892;2022-12-29T12:20:22;99275.63;;;11.20;67.71
16694;BME280;39538;52.196;9.892;2022-12-29T12:22:58;99270.72;;;11.15;68.58
16694;BME280;39538;52.196;9.892;2022-12-29T12:25:30;99264.47;;;10.96;69.07
16694;BME280;39538;52.196;9.892;2022-12-29T12:28:04;99265.41;;;10.95;70.09
16694;BME280;39538;52.196;9.892;2022-12-29T12:30:38;99277.03;;;10.85;69.77
16694;BME280;39538;52.196;9.892;2022-12-29T12:33:16;99278.16;;;10.82;70.25
16694;BME280;39538;52.196;9.892;2022-12-29T12:35:52;99266.97;;;10.79;70.98
16694;BME280;39538;52.196;9.892;2022-12-29T12:38:29;99269.78;;;10.77;71.69
16694;BME280;39538;52.196;9.892;2022-12-29T12:41:08;99275.66;;;10.71;71.53
16694;BME280;39538;52.196;9.892;2022-12-29T12:43:44;99266.97;;;10.69;71.47
16694;BME280;39538;52.196;9.892;2022-12-29T12:46:24;99276.75;;;10.68;71.63
16694;BME280;39538;52.196;9.892;2022-12-29T12:52:05;99282.63;;;10.62;71.93
16694;BME280;39538;52.196;9.892;2022-12-29T12:54:48;99277.72;;;10.58;72.38
16694;BME280;39538;52.196;9.892;2022-12-29T12:57:29;99276.78;;;10.59;72.08
16694;BME280;39538;52.196;9.892;2022-12-29T13:03:12;99275.66;;;10.61;71.48
16694;BME280;39538;52.196;9.892;2022-12-29T13:05:53;99276.47;;;10.62;71.43
16694;BME280;39538;52.196;9.892;2022-12-29T13:08:47;99286.81;;;10.65;71.51
16694;BME280;39538;52.196;9.892;2022-12-29T13:11:24;99283.75;;;10.60;71.97
16694;BME280;39538;52.196;9.892;2022-12-29T13:14:02;99287.38;;;10.59;71.86
16694;BME280;39538;52.196;9.892;2022-12-29T13:16:34;99295.75;;;10.64;70.64
16694;BME280;39538;52.196;9.892;2022-12-29T13:19:08;99290.44;;;10.64;70.75
16694;BME280;39538;52.196;9.892;2022-12-29T13:21:49;99291.69;;;10.69;71.21
16694;BME280;39538;52.196;9.892;2022-12-29T13:24:22;99294.63;;;10.66;70.18
16694;BME280;39538;52.196;9.892;2022-12-29T13:26:56;99303.44;;;10.67;70.32
16694;BME280;39538;52.196;9.892;2022-12-29T13:29:31;99300.50;;;10.60;70.44
16694;BME280;39538;52.196;9.892;2022-12-29T13:32:13;99307.50;;;10.61;70.21